createdAt,value
2019-03-22T00:00:45.440Z,43.83
2019-03-22T00:04:51.257Z,61.07
2019-03-22T00:13:13.981Z,53.60
2019-03-22T00:17:19.727Z,43.30
2019-03-22T00:21:25.456Z,41.30
2019-03-22T00:25:31.158Z,42.47
2019-03-22T00:29:36.903Z,45.63
2019-03-22T00:33:42.626Z,44.97
2019-03-22T00:37:48.265Z,48.70
2019-03-22T00:41:54.030Z,51.50
2019-03-22T00:45:59.721Z,49.03
2019-03-22T00:50:16.320Z,47.50
2019-03-22T00:54:22.416Z,50.67
2019-03-22T00:58:47.437Z,50.33
2019-03-22T01:03:04.635Z,47.53
2019-03-22T01:07:10.333Z,49.50
2019-03-22T01:11:16.114Z,49.07
2019-03-22T01:15:21.891Z,45.47
2019-03-22T01:19:27.587Z,49.03
2019-03-22T01:23:33.561Z,50.33
2019-03-22T01:27:40.626Z,51.30
2019-03-22T01:31:46.753Z,46.70
2019-03-22T01:35:52.516Z,54.80
2019-03-22T01:39:58.189Z,47.57
2019-03-22T01:44:03.945Z,49.77
2019-03-22T01:52:40.731Z,56.50
2019-03-22T01:56:46.397Z,55.23
2019-03-22T02:00:52.116Z,53.73
2019-03-22T02:04:57.795Z,55.50
2019-03-22T02:13:49.055Z,53.93
2019-03-22T02:17:54.875Z,57.70
2019-03-22T02:22:00.555Z,53.83
2019-03-22T02:26:06.314Z,51.23
2019-03-22T02:34:51.112Z,54.60
2019-03-22T02:38:56.839Z,54.97
2019-03-22T02:43:02.614Z,47.57
2019-03-22T02:47:08.322Z,47.00
2019-03-22T02:51:14.058Z,49.30
2019-03-22T02:55:19.729Z,44.67
2019-03-22T02:59:25.676Z,51.27
2019-03-22T03:03:31.422Z,51.10
2019-03-22T03:07:37.152Z,47.93
2019-03-22T03:11:42.968Z,45.43
2019-03-22T03:15:48.873Z,48.08
2019-03-22T03:19:54.623Z,49.93
2019-03-22T03:24:00.536Z,51.20
2019-03-22T03:28:06.191Z,57.43
2019-03-22T03:32:11.797Z,60.67
2019-03-22T03:36:17.579Z,57.17
2019-03-22T03:40:23.245Z,55.33
2019-03-22T03:44:28.979Z,49.57
2019-03-22T03:48:34.893Z,51.73
2019-03-22T03:52:40.610Z,52.77
2019-03-22T03:56:46.288Z,49.60
2019-03-22T04:00:53.501Z,49.10
2019-03-22T04:04:59.131Z,62.87
2019-03-22T04:09:17.209Z,67.40
2019-03-22T04:13:22.957Z,63.10
2019-03-22T04:17:28.602Z,64.27
2019-03-22T04:21:34.353Z,66.80
2019-03-22T04:25:40.114Z,63.83
2019-03-22T04:29:45.770Z,52.27
2019-03-22T04:33:51.477Z,51.43
2019-03-22T04:37:58.839Z,52.97
2019-03-22T04:42:04.541Z,47.67
2019-03-22T04:46:21.412Z,46.43
2019-03-22T05:00:14.064Z,44.27
2019-03-22T05:05:13.164Z,50.73
2019-03-22T05:14:09.866Z,72.60
2019-03-22T05:18:15.952Z,53.03
2019-03-22T05:32:09.543Z,44.70
2019-03-22T05:36:15.270Z,49.50
2019-03-22T05:40:21.076Z,44.87
2019-03-22T05:44:26.862Z,49.60
2019-03-22T05:48:44.085Z,46.87
2019-03-22T05:52:49.795Z,45.17
2019-03-22T05:56:55.760Z,40.90
2019-03-22T06:01:01.769Z,36.90
2019-03-22T06:05:08.046Z,36.33
2019-03-22T06:09:15.892Z,55.77
2019-03-22T06:13:22.158Z,42.20
2019-03-22T06:17:27.901Z,50.70
2019-03-22T06:21:33.578Z,45.07
2019-03-22T06:25:39.254Z,48.57
2019-03-22T06:30:14.963Z,49.90
2019-03-22T06:34:20.636Z,49.23
2019-03-22T06:38:26.738Z,40.57
2019-03-22T06:42:32.429Z,44.43
2019-03-22T06:46:38.644Z,41.73
2019-03-22T06:50:44.416Z,42.03
2019-03-22T06:54:50.480Z,37.63
2019-03-22T06:58:56.187Z,35.20
2019-03-22T07:03:02.287Z,36.63
2019-03-22T07:07:08.584Z,37.80
2019-03-22T07:11:14.317Z,37.40
2019-03-22T07:15:20.071Z,33.30
2019-03-22T07:19:25.837Z,33.77
2019-03-22T07:23:31.587Z,33.37
2019-03-22T07:27:37.357Z,31.67
2019-03-22T07:31:43.047Z,33.83
2019-03-22T07:35:48.763Z,32.50
2019-03-22T07:39:54.442Z,38.97
2019-03-22T07:44:00.193Z,28.47
2019-03-22T07:48:05.829Z,30.67
2019-03-22T07:52:11.588Z,26.50
2019-03-22T07:56:17.571Z,28.33
2019-03-22T08:00:30.536Z,25.40
2019-03-22T08:04:50.188Z,23.87
2019-03-22T08:08:55.843Z,21.53
2019-03-22T08:13:01.493Z,21.17
2019-03-22T08:17:07.227Z,21.90
2019-03-22T08:21:13.017Z,20.27
2019-03-22T08:25:18.827Z,18.07
2019-03-22T08:29:24.592Z,15.00
2019-03-22T08:33:30.426Z,14.00
2019-03-22T08:37:36.231Z,13.10
2019-03-22T08:41:41.990Z,12.07
2019-03-22T08:45:47.707Z,11.50
2019-03-22T08:49:53.373Z,11.73
2019-03-22T08:53:59.082Z,10.10
2019-03-22T08:58:04.765Z,10.73
2019-03-22T09:02:10.485Z,10.10
2019-03-22T09:06:16.790Z,10.33
2019-03-22T09:10:22.481Z,10.23
2019-03-22T09:14:28.196Z,10.00
2019-03-22T09:18:33.869Z,9.97
2019-03-22T09:22:39.575Z,10.03
2019-03-22T09:26:47.795Z,10.00
2019-03-22T09:31:20.741Z,8.97
2019-03-22T09:35:26.525Z,8.93
2019-03-22T09:39:32.125Z,8.40
2019-03-22T09:43:37.860Z,8.73
2019-03-22T09:47:43.560Z,9.20
2019-03-22T09:51:49.256Z,8.93
2019-03-22T09:55:54.895Z,8.63
2019-03-22T10:00:00.522Z,7.67
2019-03-22T10:04:06.328Z,8.50
2019-03-22T10:08:12.032Z,8.48
2019-03-22T10:12:17.711Z,9.08
2019-03-22T10:16:23.430Z,8.58
2019-03-22T10:20:29.203Z,8.60
2019-03-22T10:24:34.878Z,17.27
2019-03-22T10:28:40.553Z,7.73
2019-03-22T10:32:46.236Z,7.92
2019-03-22T10:36:51.918Z,8.23
2019-03-22T10:40:57.710Z,9.20
2019-03-22T10:45:03.397Z,8.10
2019-03-22T10:49:09.096Z,7.85
2019-03-22T10:53:14.928Z,7.33
2019-03-22T10:57:20.703Z,7.45
2019-03-22T11:01:26.509Z,8.73
2019-03-22T11:05:32.271Z,9.15
2019-03-22T11:09:37.951Z,7.17
2019-03-22T11:13:43.721Z,8.45
2019-03-22T11:17:49.381Z,7.92
2019-03-22T11:21:55.112Z,8.38
2019-03-22T11:26:04.379Z,7.95
2019-03-22T11:30:27.301Z,9.15
2019-03-22T11:34:32.964Z,9.03
2019-03-22T11:38:38.722Z,8.25
2019-03-22T11:42:44.422Z,9.00
2019-03-22T11:46:50.079Z,12.35
2019-03-22T11:50:55.843Z,7.65
2019-03-22T11:55:01.628Z,6.97
2019-03-22T11:59:07.356Z,7.37
2019-03-22T12:03:12.994Z,7.30
2019-03-22T12:07:19.507Z,7.40
2019-03-22T12:11:44.017Z,9.18
2019-03-22T12:15:49.906Z,8.48
2019-03-22T12:19:55.605Z,7.85
2019-03-22T12:24:01.277Z,7.00
2019-03-22T12:28:09.855Z,7.75
2019-03-22T12:32:15.522Z,6.90
2019-03-22T12:36:39.973Z,6.42
2019-03-22T12:40:46.690Z,7.53
2019-03-22T12:44:55.514Z,7.30
2019-03-22T12:49:01.411Z,6.97
2019-03-22T12:57:52.305Z,9.10
2019-03-22T13:01:58.084Z,8.98
2019-03-22T13:06:03.875Z,9.25
2019-03-22T13:10:48.834Z,9.03
2019-03-22T13:14:56.634Z,8.48
2019-03-22T13:19:21.294Z,8.20
2019-03-22T13:23:27.190Z,7.10
2019-03-22T13:27:32.918Z,6.95
2019-03-22T13:31:38.774Z,7.03
2019-03-22T13:35:44.451Z,5.55
2019-03-22T13:39:50.327Z,4.10
2019-03-22T13:43:55.992Z,3.95
2019-03-22T13:48:01.726Z,4.17
2019-03-22T13:52:07.686Z,3.87
2019-03-22T13:56:13.373Z,4.40
2019-03-22T14:00:19.234Z,4.28
2019-03-22T14:04:24.861Z,4.25
2019-03-22T14:08:30.586Z,4.20
2019-03-22T14:12:37.299Z,4.17
2019-03-22T14:16:49.311Z,4.97
2019-03-22T14:20:55.280Z,4.70
2019-03-22T14:25:01.302Z,3.98
2019-03-22T14:29:07.073Z,3.98
2019-03-22T14:33:13.745Z,4.65
2019-03-22T14:37:25.798Z,4.50
2019-03-22T14:41:50.299Z,4.20
2019-03-22T14:45:56.282Z,3.90
2019-03-22T14:50:02.066Z,3.60
2019-03-22T14:54:08.115Z,3.65
2019-03-22T14:58:13.884Z,3.90
2019-03-22T15:02:19.615Z,3.92
2019-03-22T15:06:25.383Z,4.03
2019-03-22T15:10:32.608Z,3.52
2019-03-22T15:14:57.339Z,4.00
2019-03-22T15:19:21.926Z,3.75
2019-03-22T15:23:42.193Z,10.58
2019-03-22T15:28:25.577Z,3.25
2019-03-22T15:32:50.236Z,2.87
2019-03-22T15:37:15.432Z,3.42
2019-03-22T15:41:28.255Z,3.60
2019-03-22T15:45:33.965Z,3.75
2019-03-22T15:49:58.512Z,2.90
2019-03-22T15:54:04.428Z,3.30
2019-03-22T15:58:11.709Z,3.00
2019-03-22T16:02:28.683Z,2.90
2019-03-22T16:06:34.414Z,2.98
2019-03-22T16:10:40.099Z,2.63
2019-03-22T16:14:45.794Z,3.08
2019-03-22T16:18:51.664Z,3.23
2019-03-22T16:22:57.390Z,3.67
2019-03-22T16:27:03.043Z,3.20
2019-03-22T16:31:09.059Z,3.33
2019-03-22T16:35:14.838Z,3.30
2019-03-22T16:39:20.538Z,2.90
2019-03-22T16:43:26.210Z,3.40
2019-03-22T16:47:31.854Z,3.22
2019-03-22T16:51:48.706Z,3.22
2019-03-22T16:55:54.476Z,3.10
2019-03-22T17:00:00.352Z,3.40
2019-03-22T17:04:06.077Z,3.47
2019-03-22T17:08:13.355Z,3.20
2019-03-22T17:12:20.681Z,2.92
2019-03-22T17:16:26.357Z,3.70
2019-03-22T17:20:32.098Z,3.50
2019-03-22T17:24:37.870Z,3.40
2019-03-22T17:28:43.492Z,4.53
2019-03-22T17:32:49.184Z,4.53
2019-03-22T17:37:13.892Z,4.55
2019-03-22T17:41:33.803Z,3.87
2019-03-22T17:45:46.098Z,7.58
2019-03-22T17:49:51.752Z,4.90
2019-03-22T17:53:57.384Z,4.85
2019-03-22T17:58:10.511Z,5.33
2019-03-22T18:02:17.880Z,6.65
2019-03-22T18:06:23.633Z,4.70
2019-03-22T18:10:29.310Z,5.67
2019-03-22T18:14:35.239Z,5.70
2019-03-22T18:18:40.893Z,5.90
2019-03-22T18:27:04.324Z,5.75
2019-03-22T18:31:09.983Z,5.72
2019-03-22T18:35:15.696Z,6.17
2019-03-22T18:39:21.718Z,5.08
2019-03-22T18:43:27.495Z,5.10
2019-03-22T18:47:33.182Z,6.40
2019-03-22T18:51:38.923Z,7.83
2019-03-22T18:55:44.641Z,15.50
2019-03-22T18:59:55.068Z,18.92
2019-03-22T19:04:01.101Z,6.42
2019-03-22T19:08:08.506Z,5.12
2019-03-22T19:12:14.565Z,4.80
2019-03-22T19:16:20.217Z,4.08
2019-03-22T19:20:25.902Z,8.57
2019-03-22T19:28:52.956Z,8.77
2019-03-22T19:32:58.626Z,7.93
2019-03-22T19:37:04.275Z,7.17
2019-03-22T19:41:09.983Z,8.43
2019-03-22T19:45:55.297Z,8.35
2019-03-22T19:50:01.024Z,10.23
2019-03-22T19:54:06.805Z,8.50
2019-03-22T19:58:12.596Z,5.50
2019-03-22T20:02:18.322Z,4.60
2019-03-22T20:06:25.647Z,4.80
2019-03-22T20:10:31.654Z,8.27
2019-03-22T20:14:37.604Z,7.60
2019-03-22T20:18:43.445Z,9.10
2019-03-22T20:22:49.246Z,11.57
2019-03-22T20:26:55.181Z,11.30
2019-03-22T20:31:19.721Z,11.97
2019-03-22T20:35:44.183Z,13.40
2019-03-22T20:39:50.017Z,10.77
2019-03-22T20:43:57.301Z,11.40
2019-03-22T20:48:22.264Z,11.73
2019-03-22T20:52:28.066Z,11.07
2019-03-22T20:56:33.793Z,11.13
2019-03-22T21:00:39.646Z,10.17
2019-03-22T21:04:45.426Z,10.87
2019-03-22T21:08:51.203Z,10.60
2019-03-22T21:12:56.921Z,11.43
2019-03-22T21:17:02.833Z,11.10
2019-03-22T21:21:08.554Z,10.17
2019-03-22T21:25:14.339Z,11.00
2019-03-22T21:29:20.382Z,9.97
2019-03-22T21:33:26.015Z,10.53
2019-03-22T21:37:31.717Z,10.80
2019-03-22T21:41:37.556Z,11.50
2019-03-22T21:45:43.252Z,12.40
2019-03-22T21:49:48.980Z,13.67
2019-03-22T21:53:54.651Z,15.93
2019-03-22T21:58:00.399Z,16.13
2019-03-22T22:02:06.431Z,17.67
2019-03-22T22:15:39.234Z,16.47
2019-03-22T22:19:46.542Z,17.57
2019-03-22T22:23:52.279Z,17.70
2019-03-22T22:27:58.055Z,18.53
2019-03-22T22:32:03.819Z,19.70
2019-03-22T22:36:11.407Z,20.77
2019-03-22T22:40:17.252Z,21.67
2019-03-22T22:44:23.031Z,22.37
2019-03-22T22:48:28.757Z,23.63
2019-03-22T22:52:34.559Z,23.90
2019-03-22T22:56:40.481Z,22.87
2019-03-22T23:05:06.495Z,24.00
2019-03-22T23:09:12.199Z,24.50
2019-03-22T23:13:18.014Z,25.13
2019-03-22T23:17:25.851Z,25.80
2019-03-22T23:21:31.562Z,26.03
2019-03-22T23:25:37.465Z,26.63
2019-03-22T23:29:43.184Z,27.77
2019-03-22T23:33:48.946Z,27.23
2019-03-22T23:37:54.607Z,28.53
2019-03-22T23:42:00.416Z,27.47
2019-03-22T23:46:06.125Z,27.20
2019-03-22T23:54:49.298Z,28.17
2019-03-22T23:58:55.029Z,28.10
